Time;durP1;ratioP1;P1;durP2;ratioP2;P2;SDS_P1;SDS_P2;PMS_P1;PMS_P2;Temp;Humidity;BMP_temperature;BMP_pressure;BME280_temperature;BME280_humidity;BME280_pressure;Samples;Min_cycle;Max_cycle;Signal;HPM_P1;HPM_P2
2023/02/23 00:00:37;;;;;;;47.17;29.27;;;;;;;6.55;100.00;98752.97;5078885;28;20448;-94
2023/02/23 00:03:04;;;;;;;47.38;29.08;;;;;;;6.60;100.00;98761.72;5077169;28;20052;-95
2023/02/23 00:05:34;;;;;;;45.88;29.48;;;;;;;6.59;100.00;98767.88;5076468;28;20118;-94
2023/02/23 00:08:00;;;;;;;49.28;30.05;;;;;;;6.41;100.00;98745.19;5077199;28;20051;-94
2023/02/23 00:10:29;;;;;;;49.22;29.77;;;;;;;6.53;100.00;98773.25;5077009;28;20052;-93
2023/02/23 00:12:56;;;;;;;52.05;30.00;;;;;;;6.46;100.00;98746.03;5076808;28;20437;-95
2023/02/23 00:15:25;;;;;;;49.65;29.35;;;;;;;6.69;100.00;98768.66;5077296;28;20063;-93
2023/02/23 00:17:53;;;;;;;52.55;31.23;;;;;;;6.58;100.00;98743.22;5077903;28;20051;-93
2023/02/23 00:20:24;;;;;;;50.20;31.20;;;;;;;6.65;100.00;98744.03;5077433;28;20075;-93
2023/02/23 00:22:52;;;;;;;53.03;29.20;;;;;;;6.73;100.00;98742.16;5076489;28;20036;-93
2023/02/23 00:25:18;;;;;;;50.38;29.42;;;;;;;6.84;100.00;98764.97;5076125;28;20045;-93
2023/02/23 00:27:46;;;;;;;47.90;29.13;;;;;;;6.88;100.00;98764.03;5069696;28;20486;-93
2023/02/23 00:30:13;;;;;;;48.70;28.95;;;;;;;6.87;100.00;98747.28;5076451;28;20041;-93
2023/02/23 00:32:39;;;;;;;49.58;30.67;;;;;;;6.99;100.00;98760.34;5076416;28;20052;-94
2023/02/23 00:38:06;;;;;;;47.83;29.08;;;;;;;7.05;100.00;98759.41;5182834;27;20375;-95
2023/02/23 00:40:32;;;;;;;49.20;30.10;;;;;;;7.15;100.00;98781.31;5146117;27;21094;-95
2023/02/23 00:42:59;;;;;;;49.60;29.60;;;;;;;7.00;100.00;98755.94;5147847;27;20074;-94
2023/02/23 00:45:25;;;;;;;47.78;29.27;;;;;;;7.07;100.00;98757.63;5148825;27;20084;-94
2023/02/23 00:47:51;;;;;;;50.95;29.08;;;;;;;7.13;100.00;98773.38;5136793;27;20122;-94
2023/02/23 00:50:20;;;;;;;49.45;29.85;;;;;;;7.09;100.00;98750.53;5139432;27;20043;-94
2023/02/23 00:52:46;;;;;;;47.60;29.52;;;;;;;7.25;100.00;98764.41;5141354;27;21560;-93
2023/02/23 00:55:14;;;;;;;50.50;29.92;;;;;;;7.15;100.00;98750.44;5146952;27;20039;-94
2023/02/23 00:57:40;;;;;;;49.92;30.60;;;;;;;7.21;100.00;98765.34;5139942;27;20442;-94
2023/02/23 01:00:19;;;;;;;49.22;30.90;;;;;;;7.20;100.00;98759.19;5151684;27;20438;-93
2023/02/23 01:02:45;;;;;;;50.00;31.23;;;;;;;7.19;100.00;98757.44;5147480;27;20039;-93
2023/02/23 01:05:12;;;;;;;50.35;31.17;;;;;;;7.15;100.00;98753.06;5148461;27;20063;-93
2023/02/23 01:07:39;;;;;;;48.35;30.40;;;;;;;7.14;100.00;98740.78;5142071;27;20509;-93
2023/02/23 01:10:18;;;;;;;44.75;28.67;;;;;;;7.16;100.00;98741.63;5139575;27;20050;-93
2023/02/23 01:12:47;;;;;;;48.08;28.42;;;;;;;7.13;100.00;98724.91;5148493;27;20049;-95
2023/02/23 01:15:13;;;;;;;50.45;31.17;;;;;;;7.07;100.00;98722.34;5146718;27;20043;-95
2023/02/23 01:17:39;;;;;;;45.47;29.20;;;;;;;7.19;100.00;98731.00;5139174;27;20374;-95
2023/02/23 01:33:30;;;;;;;41.97;23.50;;;;;;;7.14;100.00;98706.38;5112779;27;20366;-92
2023/02/23 01:35:57;;;;;;;39.65;24.25;;;;;;;7.25;100.00;98716.81;5111301;28;20051;-94
2023/02/23 01:38:23;;;;;;;44.15;25.65;;;;;;;7.28;100.00;98721.19;5112555;28;20401;-94
2023/02/23 01:40:49;;;;;;;43.10;24.75;;;;;;;7.25;100.00;98705.38;5113095;28;20135;-93
2023/02/23 01:43:24;;;;;;;44.10;25.05;;;;;;;7.28;100.00;98715.88;5114298;28;20075;-94
2023/02/23 01:45:53;;;;;;;43.33;27.45;;;;;;;7.19;100.00;98707.19;5114688;28;20043;-93
2023/02/23 01:48:21;;;;;;;40.72;26.42;;;;;;;7.25;100.00;98711.53;5117031;28;20437;-93
2023/02/23 01:50:53;;;;;;;42.42;26.63;;;;;;;7.19;100.00;98703.69;5116954;28;20386;-93
2023/02/23 01:53:20;;;;;;;41.97;25.70;;;;;;;7.34;100.00;98721.97;5116463;28;20047;-93
2023/02/23 01:55:49;;;;;;;44.03;25.90;;;;;;;7.46;100.00;98725.31;5116082;28;20114;-93
2023/02/23 01:58:18;;;;;;;45.90;27.05;;;;;;;7.26;100.00;98689.44;5116269;28;20044;-92
2023/02/23 02:00:49;;;;;;;43.55;26.45;;;;;;;7.39;100.00;98714.84;5115781;28;20427;-93
2023/02/23 02:03:25;;;;;;;45.83;27.27;;;;;;;7.31;100.00;98694.69;5116911;28;20044;-93
2023/02/23 02:05:53;;;;;;;42.15;26.98;;;;;;;7.28;100.00;98679.72;5115620;28;20512;-95
2023/02/23 02:08:23;;;;;;;39.92;25.45;;;;;;;7.36;100.00;98671.69;5116357;28;20047;-93
2023/02/23 02:10:56;;;;;;;42.80;26.92;;;;;;;7.45;100.00;98684.75;5116421;28;20051;-94
2023/02/23 02:13:26;;;;;;;39.38;25.73;;;;;;;7.24;100.00;98675.38;5116472;28;20051;-93
2023/02/23 02:16:30;;;;;;;47.42;27.33;;;;;;;7.31;100.00;98722.03;5114228;28;20074;-92
2023/02/23 02:19:26;;;;;;;49.25;29.85;;;;;;;7.24;100.00;98722.97;5049537;28;20084;-93
2023/02/23 02:22:28;;;;;;;57.70;33.55;;;;;;;7.29;100.00;98739.69;5017752;28;20038;-92
2023/02/23 02:25:22;;;;;;;49.67;31.33;;;;;;;7.18;100.00;98720.44;5017689;28;20049;-94
2023/02/23 02:28:12;;;;;;;46.45;29.25;;;;;;;7.19;100.00;98714.25;5018247;28;20054;-93
2023/02/23 02:31:10;;;;;;;45.65;28.40;;;;;;;7.19;100.00;98698.38;5017376;28;20041;-93
2023/02/23 02:34:10;;;;;;;50.75;31.23;;;;;;;7.35;100.00;98720.19;5006132;28;20049;-92
2023/02/23 02:37:09;;;;;;;45.55;28.58;;;;;;;7.38;100.00;98702.50;5004573;28;20046;-93
2023/02/23 02:39:45;;;;;;;48.65;27.58;;;;;;;7.41;100.00;98705.09;5005283;28;20157;-94
2023/02/23 02:42:20;;;;;;;41.65;27.50;;;;;;;7.40;100.00;98684.84;5004678;28;20056;-93
2023/02/23 02:44:52;;;;;;;46.53;27.38;;;;;;;7.64;100.00;98711.81;5004687;28;20065;-92
2023/02/23 02:47:24;;;;;;;42.65;26.10;;;;;;;7.53;100.00;98697.88;5003608;28;20045;-94
2023/02/23 02:49:58;;;;;;;42.00;27.35;;;;;;;7.50;100.00;98682.91;5005189;28;20041;-93
2023/02/23 02:52:34;;;;;;;43.95;27.63;;;;;;;7.56;100.00;98684.59;5005550;28;20062;-93
2023/02/23 02:55:11;;;;;;;47.22;27.20;;;;;;;7.55;100.00;98686.38;5017577;28;20131;-93
2023/02/23 02:57:39;;;;;;;42.92;26.90;;;;;;;7.58;100.00;98685.44;5102093;28;20516;-92
2023/02/23 04:17:58;;;;;;;41.65;25.17;;;;;;;7.32;100.00;98720.25;5118634;27;20381;-92
2023/02/23 04:20:24;;;;;;;42.30;25.88;;;;;;;7.16;100.00;98704.59;5117243;28;20044;-93
2023/02/23 04:22:50;;;;;;;41.30;26.33;;;;;;;7.29;100.00;98720.31;5117683;28;20562;-93
2023/02/23 04:25:18;;;;;;;48.40;29.17;;;;;;;7.27;100.00;98709.72;5117454;28;20036;-93
2023/02/23 04:27:44;;;;;;;48.20;29.15;;;;;;;7.35;100.00;98720.19;5117248;28;20397;-93
2023/02/23 04:30:10;;;;;;;43.00;28.83;;;;;;;7.25;100.00;98708.00;5116856;28;20068;-92
2023/02/23 04:32:37;;;;;;;42.53;27.98;;;;;;;7.16;100.00;98701.09;5117055;28;20044;-93
2023/02/23 04:35:05;;;;;;;47.47;30.27;;;;;;;7.20;100.00;98708.94;5117574;28;20039;-93
2023/02/23 04:37:31;;;;;;;44.83;28.30;;;;;;;7.18;100.00;98705.44;5116934;28;20070;-92
2023/02/23 04:39:59;;;;;;;45.78;28.58;;;;;;;7.15;100.00;98696.69;5116393;28;20078;-92
2023/02/23 04:42:25;;;;;;;48.43;28.73;;;;;;;7.23;100.00;98710.66;5117645;28;20036;-92
2023/02/23 04:44:51;;;;;;;43.88;27.58;;;;;;;7.14;100.00;98701.09;5117453;28;20047;-92
2023/02/23 04:47:17;;;;;;;41.67;26.65;;;;;;;7.17;100.00;98708.09;5116602;28;20036;-94
2023/02/23 04:49:43;;;;;;;47.55;27.83;;;;;;;7.17;100.00;98708.09;5116822;28;20115;-92
2023/02/23 04:52:11;;;;;;;43.63;27.30;;;;;;;7.17;100.00;98708.09;5117282;28;20047;-93
2023/02/23 04:54:38;;;;;;;41.17;26.60;;;;;;;7.12;100.00;98694.09;5116907;28;20068;-92
2023/02/23 04:57:04;;;;;;;47.15;27.33;;;;;;;7.19;100.00;98696.59;5117388;28;20405;-93
2023/02/23 04:59:30;;;;;;;43.55;28.02;;;;;;;7.27;100.00;98717.66;5117353;28;20059;-93
2023/02/23 05:01:56;;;;;;;43.45;27.08;;;;;;;7.14;100.00;98700.22;5116731;28;20040;-93
2023/02/23 05:04:22;;;;;;;41.70;27.50;;;;;;;7.14;100.00;98702.88;5117880;28;20047;-94
2023/02/23 05:06:48;;;;;;;43.97;28.17;;;;;;;7.19;100.00;98693.97;5117061;28;20047;-92
2023/02/23 05:09:15;;;;;;;43.90;27.75;;;;;;;7.16;100.00;98690.50;5116924;28;20066;-92
2023/02/23 05:11:41;;;;;;;41.00;26.08;;;;;;;7.13;100.00;98701.13;5117079;28;20512;-94
2023/02/23 05:14:08;;;;;;;43.78;28.02;;;;;;;7.14;100.00;98687.88;5116894;28;20055;-92
2023/02/23 05:16:34;;;;;;;43.55;26.85;;;;;;;7.27;100.00;98699.16;5115906;28;20478;-93
2023/02/23 05:19:00;;;;;;;44.53;27.75;;;;;;;7.19;100.00;98693.97;5116482;28;20141;-94
2023/02/23 05:21:26;;;;;;;48.50;28.52;;;;;;;7.15;100.00;98694.91;5117321;28;20039;-94
2023/02/23 05:23:52;;;;;;;42.80;27.77;;;;;;;7.12;100.00;98689.66;5116143;28;20150;-95
2023/02/23 05:26:19;;;;;;;41.58;27.40;;;;;;;7.12;100.00;98696.75;5117099;28;20074;-94
2023/02/23 05:28:45;;;;;;;42.53;27.05;;;;;;;7.13;100.00;98691.41;5105488;28;20090;-94
2023/02/23 05:31:11;;;;;;;49.72;28.63;;;;;;;7.27;100.00;98695.66;5102694;28;20063;-94
2023/02/23 05:33:41;;;;;;;46.22;29.00;;;;;;;7.25;100.00;98695.66;5102624;28;20040;-93
2023/02/23 05:36:09;;;;;;;46.72;28.10;;;;;;;7.18;100.00;98700.16;5102418;28;20060;-92
2023/02/23 05:38:35;;;;;;;46.60;29.23;;;;;;;7.20;100.00;98714.25;5102920;28;20051;-94
2023/02/23 05:41:04;;;;;;;44.88;28.83;;;;;;;7.16;100.00;98691.38;5102514;28;20076;-95
2023/02/23 05:43:31;;;;;;;46.25;28.02;;;;;;;7.30;100.00;98716.75;5102886;28;20051;-95
2023/02/23 05:45:58;;;;;;;46.25;28.95;;;;;;;7.28;100.00;98703.53;5102534;28;20046;-94
2023/02/23 05:48:24;;;;;;;45.55;28.05;;;;;;;7.25;100.00;98687.72;5102643;28;20063;-93
2023/02/23 05:50:50;;;;;;;49.17;30.15;;;;;;;7.24;100.00;98682.44;5102071;28;20051;-94
2023/02/23 05:53:16;;;;;;;50.05;29.85;;;;;;;7.28;100.00;98681.50;5101512;28;20036;-93
2023/02/23 05:55:42;;;;;;;51.33;29.67;;;;;;;7.24;100.00;98666.56;5102403;28;20525;-93
2023/02/23 05:58:08;;;;;;;48.90;28.85;;;;;;;7.36;100.00;98693.72;5102134;28;20131;-93
2023/02/23 06:00:35;;;;;;;50.13;30.23;;;;;;;7.20;100.00;98664.00;5101710;28;20087;-93
2023/02/23 06:03:02;;;;;;;52.00;30.73;;;;;;;7.26;100.00;98678.00;5102124;28;20044;-93
2023/02/23 06:05:28;;;;;;;48.15;30.33;;;;;;;7.19;100.00;98664.00;5102112;28;20040;-95
2023/02/23 06:07:55;;;;;;;48.75;31.08;;;;;;;7.34;100.00;98692.88;5101582;28;20067;-94
2023/02/23 06:10:21;;;;;;;48.53;30.45;;;;;;;7.10;100.00;98662.38;5101894;28;20045;-93
2023/02/23 06:12:48;;;;;;;51.13;30.85;;;;;;;7.16;100.00;98669.34;5104552;28;20389;-95
2023/02/23 06:15:14;;;;;;;48.92;30.73;;;;;;;7.13;100.00;98672.03;5102233;28;20083;-94
2023/02/23 06:17:41;;;;;;;48.30;29.67;;;;;;;7.13;100.00;98677.31;5100308;28;20048;-93
2023/02/23 06:20:08;;;;;;;47.55;28.80;;;;;;;7.19;100.00;98695.75;5097100;28;20047;-93
2023/02/23 06:22:34;;;;;;;49.75;30.65;;;;;;;7.15;100.00;98659.66;5096744;28;20424;-93
2023/02/23 06:25:03;;;;;;;48.75;30.83;;;;;;;7.20;100.00;98685.16;5100849;28;20074;-93
2023/02/23 06:27:29;;;;;;;;;;;;;;;7.11;100.00;98694.97;5098804;28;20046;-94
2023/02/23 06:29:56;;;;;;;51.45;32.53;;;;;;;6.84;100.00;98694.47;5097518;28;20448;-94
2023/02/23 06:32:22;;;;;;;59.75;33.28;;;;;;;6.90;100.00;98717.31;5093723;28;20046;-93
2023/02/23 06:34:50;;;;;;;57.35;35.65;;;;;;;6.67;100.00;98683.25;5096057;28;20430;-94
2023/02/23 06:37:16;;;;;;;58.13;33.70;;;;;;;6.90;100.00;98706.75;5097444;28;20085;-94
2023/02/23 06:39:42;;;;;;;53.75;31.98;;;;;;;6.89;100.00;98710.25;5094676;28;20052;-93
2023/02/23 06:42:07;;;;;;;53.28;32.63;;;;;;;6.77;100.00;98690.16;5099327;28;20044;-93
2023/02/23 06:44:34;;;;;;;54.97;32.97;;;;;;;6.88;100.00;98703.25;5100474;28;20044;-95
2023/02/23 06:47:02;;;;;;;51.83;33.20;;;;;;;6.88;100.00;98696.19;5098764;28;20135;-95
2023/02/23 06:49:29;;;;;;;56.65;32.90;;;;;;;7.05;100.00;98713.56;5098424;28;20119;-94
2023/02/23 06:51:57;;;;;;;54.10;32.13;;;;;;;7.03;100.00;98702.16;5098354;28;20048;-93
2023/02/23 06:54:23;;;;;;;51.30;32.50;;;;;;;7.13;100.00;98714.34;5098200;28;20045;-95
2023/02/23 06:56:49;;;;;;;50.05;30.95;;;;;;;7.08;100.00;98695.03;5098462;28;20043;-94
2023/02/23 06:59:15;;;;;;;52.72;31.67;;;;;;;7.32;100.00;98726.41;5099589;28;20131;-95
2023/02/23 07:01:43;;;;;;;49.08;31.15;;;;;;;7.36;100.00;98714.00;5098952;28;20055;-95
2023/02/23 07:04:09;;;;;;;49.90;31.42;;;;;;;7.44;100.00;98730.66;5099017;28;20048;-95
2023/02/23 07:06:36;;;;;;;51.17;31.90;;;;;;;7.41;100.00;98709.50;5099595;28;20044;-94
2023/02/23 07:09:04;;;;;;;46.67;29.92;;;;;;;7.48;100.00;98707.66;5099091;28;20036;-94
2023/02/23 07:11:30;;;;;;;48.03;29.58;;;;;;;7.49;100.00;98697.03;5099111;28;20074;-94
2023/02/23 07:13:57;;;;;;;46.25;27.92;;;;;;;7.56;100.00;98703.97;5100405;28;20342;-94
2023/02/23 07:16:23;;;;;;;46.35;28.17;;;;;;;7.61;100.00;98707.44;5099332;28;20040;-94
2023/02/23 07:18:49;;;;;;;47.13;29.00;;;;;;;7.64;100.00;98703.88;5099530;28;20097;-93
2023/02/23 07:21:14;;;;;;;43.83;26.52;;;;;;;7.77;100.00;98718.66;5099802;28;20393;-92
2023/02/23 07:23:40;;;;;;;44.88;27.70;;;;;;;7.74;100.00;98709.88;5099525;28;20055;-93
2023/02/23 07:26:08;;;;;;;44.00;26.38;;;;;;;7.77;100.00;98717.78;5099433;28;20071;-95
2023/02/23 07:28:34;;;;;;;38.53;25.05;;;;;;;7.75;100.00;98736.31;5097770;28;20413;-92
2023/02/23 07:31:00;;;;;;;45.17;25.30;;;;;;;7.61;100.00;98711.84;5098815;28;20040;-93
2023/02/23 07:33:26;;;;;;;43.15;24.83;;;;;;;7.67;100.00;98711.75;5099349;28;20040;-94
2023/02/23 07:35:52;;;;;;;40.88;24.90;;;;;;;7.99;100.00;98742.97;5099994;28;20101;-93
2023/02/23 07:38:18;;;;;;;42.63;23.92;;;;;;;8.04;100.00;98727.00;5100780;28;20051;-94
2023/02/23 07:40:44;;;;;;;37.55;22.35;;;;;;;8.13;100.00;98710.06;5100384;28;20409;-93
2023/02/23 07:43:11;;;;;;;37.33;21.55;;;;;;;8.25;100.00;98709.88;5100968;28;20044;-94
2023/02/23 07:45:37;;;;;;;38.75;22.52;;;;;;;8.59;100.00;98731.31;5100696;28;20048;-93
2023/02/23 07:48:03;;;;;;;39.20;22.42;;;;;;;8.91;100.00;98743.03;5100578;28;20121;-93
2023/02/23 07:50:29;;;;;;;32.58;19.75;;;;;;;9.11;100.00;98717.88;5099677;28;20051;-93
2023/02/23 07:52:55;;;;;;;33.47;19.50;;;;;;;9.40;100.00;98718.09;5100292;28;20044;-93
2023/02/23 07:55:21;;;;;;;34.30;20.42;;;;;;;9.73;100.00;98727.94;5101489;28;20047;-93
2023/02/23 07:57:47;;;;;;;42.67;24.40;;;;;;;10.04;100.00;98728.03;5100701;28;20061;-94
2023/02/23 08:00:17;;;;;;;42.50;26.30;;;;;;;10.10;100.00;98727.03;5100548;28;20044;-93
2023/02/23 08:02:43;;;;;;;43.63;27.17;;;;;;;10.20;100.00;98721.44;5100934;28;20040;-92
2023/02/23 08:05:09;;;;;;;42.38;26.55;;;;;;;10.22;100.00;98719.63;5100172;28;20307;-95
2023/02/23 08:07:35;;;;;;;37.15;22.85;;;;;;;10.32;100.00;98727.38;5100942;28;20040;-94
2023/02/23 08:10:01;;;;;;;36.85;22.42;;;;;;;10.35;100.00;98738.81;5100691;28;20443;-94
2023/02/23 08:12:28;;;;;;;37.40;22.17;;;;;;;10.31;100.00;98723.84;5101292;28;20040;-94
2023/02/23 08:14:54;;;;;;;39.70;23.98;;;;;;;10.33;100.00;98719.38;5101413;28;20075;-94
2023/02/23 08:17:21;;;;;;;37.60;24.00;;;;;;;10.45;100.00;98726.13;5100915;28;20063;-95
2023/02/23 08:19:48;;;;;;;40.58;23.52;;;;;;;10.52;100.00;98719.75;5101188;28;20051;-95
2023/02/23 08:22:17;;;;;;;40.88;23.15;;;;;;;10.61;100.00;98715.94;5101820;28;20075;-94
2023/02/23 08:24:43;;;;;;;44.20;24.70;;;;;;;10.77;100.00;98746.50;5101395;28;20139;-94
2023/02/23 08:27:09;;;;;;;42.70;26.52;;;;;;;10.66;100.00;98738.81;5101100;28;20446;-93
2023/02/23 08:29:39;;;;;;;39.03;23.55;;;;;;;10.43;100.00;98728.84;5100593;28;20090;-94
2023/02/23 08:32:05;;;;;;;43.35;24.42;;;;;;;10.39;100.00;98727.19;5100673;28;20075;-93
2023/02/23 08:34:36;;;;;;;41.45;22.33;;;;;;;10.48;100.00;98756.16;5100403;28;20047;-94
2023/02/23 08:37:02;;;;;;;39.83;24.67;;;;;;;10.24;100.00;98730.22;5100726;28;20078;-93
2023/02/23 08:39:28;;;;;;;46.08;24.48;;;;;;;10.39;100.00;98756.41;5101111;28;20048;-95
2023/02/23 08:41:54;;;;;;;41.70;24.60;;;;;;;10.31;100.00;98726.50;5100263;28;20052;-93
2023/02/23 08:44:20;;;;;;;40.22;23.92;;;;;;;10.46;100.00;98735.84;5101106;28;20044;-94
2023/02/23 08:46:46;;;;;;;43.75;24.27;;;;;;;10.53;100.00;98732.09;5100130;28;20044;-94
2023/02/23 08:49:12;;;;;;;37.60;23.65;;;;;;;10.54;100.00;98738.28;5099582;28;20505;-94
2023/02/23 08:51:40;;;;;;;41.88;24.55;;;;;;;10.53;100.00;98737.41;5100182;28;20063;-95
2023/02/23 08:54:11;;;;;;;39.08;23.88;;;;;;;10.45;100.00;98750.03;5100219;28;20044;-94
2023/02/23 08:56:37;;;;;;;42.70;25.42;;;;;;;10.44;100.00;98765.13;5101316;28;20115;-93
2023/02/23 08:59:03;;;;;;;47.00;25.85;;;;;;;10.23;100.00;98742.59;5100319;28;20040;-93
2023/02/23 09:01:29;;;;;;;42.63;24.48;;;;;;;10.25;100.00;98745.22;5099615;28;20040;-94
2023/02/23 09:03:55;;;;;;;42.85;23.58;;;;;;;10.31;100.00;98762.84;5103197;28;20077;-94
2023/02/23 09:06:24;;;;;;;41.78;24.58;;;;;;;10.12;100.00;98741.16;5103923;28;20040;-93
2023/02/23 09:08:53;;;;;;;46.35;25.98;;;;;;;10.10;100.00;98748.28;5103711;28;20651;-94
2023/02/23 09:11:19;;;;;;;44.97;26.10;;;;;;;10.06;100.00;98743.06;5103746;28;20143;-94
2023/02/23 09:13:45;;;;;;;46.13;27.00;;;;;;;10.04;100.00;98736.91;5103720;28;20072;-94
2023/02/23 09:16:11;;;;;;;43.35;25.73;;;;;;;10.00;100.00;98743.22;5103055;28;20050;-95
2023/02/23 09:18:37;;;;;;;46.55;26.17;;;;;;;10.19;100.00;98740.06;5103898;28;20366;-93
2023/02/23 09:21:06;;;;;;;39.95;24.73;;;;;;;10.31;100.00;98736.28;5103793;28;20081;-95
2023/02/23 09:23:33;;;;;;;46.45;27.42;;;;;;;10.53;100.00;98737.41;5102938;28;20048;-94
2023/02/23 09:26:03;;;;;;;48.85;26.10;;;;;;;10.96;100.00;98757.50;5103448;28;20073;-93
2023/02/23 09:28:30;;;;;;;45.22;25.58;;;;;;;11.09;100.00;98750.03;5104608;28;20051;-94
2023/02/23 09:30:56;;;;;;;44.50;24.90;;;;;;;11.22;100.00;98734.56;5103910;28;20516;-94
2023/02/23 09:33:22;;;;;;;42.97;26.42;;;;;;;11.60;100.00;98765.34;5102641;28;20067;-93
2023/02/23 09:35:48;;;;;;;46.97;25.15;;;;;;;11.75;100.00;98742.66;5102690;28;20047;-94
2023/02/23 09:38:14;;;;;;;48.63;26.08;;;;;;;11.79;100.00;98748.78;5102603;28;20044;-94
2023/02/23 09:40:45;;;;;;;43.78;24.35;;;;;;;12.09;100.00;98761.13;5102429;28;20050;-94
2023/02/23 09:43:20;;;;;;;44.00;26.60;;;;;;;12.16;100.00;98747.59;5102750;28;20040;-94
2023/02/23 09:45:50;;;;;;;45.22;25.58;;;;;;;12.20;100.00;98751.91;5102358;28;20396;-94
2023/02/23 09:48:18;;;;;;;46.17;25.42;;;;;;;12.33;96.95;98770.06;5101902;28;20107;-93
2023/02/23 09:50:48;;;;;;;41.08;24.70;;;;;;;12.40;96.49;98762.72;5102817;28;20091;-94
2023/02/23 09:53:25;;;;;;;45.17;26.25;;;;;;;12.41;97.15;98737.81;5102118;28;20059;-92
2023/02/23 09:55:53;;;;;;;38.50;24.00;;;;;;;12.62;96.86;98756.66;5102796;28;20048;-93
2023/02/23 09:58:24;;;;;;;42.78;26.30;;;;;;;12.74;95.86;98748.22;5102367;28;20044;-94
2023/02/23 10:01:16;;;;;;;45.92;26.20;;;;;;;12.97;94.51;98749.16;5101643;28;20436;-95
2023/02/23 10:03:51;;;;;;;40.80;24.50;;;;;;;13.06;91.76;98739.03;5101882;28;20044;-94
2023/02/23 10:06:19;;;;;;;44.65;25.73;;;;;;;12.70;93.16;98746.56;5099897;28;20493;-93
2023/02/23 10:08:56;;;;;;;46.10;27.00;;;;;;;12.78;91.62;98738.31;5100641;28;20044;-95
2023/02/23 10:11:32;;;;;;;42.72;26.30;;;;;;;12.85;94.02;98727.34;5101857;28;20043;-95
2023/02/23 10:14:12;;;;;;;45.65;26.50;;;;;;;13.05;92.09;98720.38;5100073;28;20062;-93
2023/02/23 10:16:50;;;;;;;41.97;24.73;;;;;;;13.02;90.35;98720.50;5102163;28;20159;-95
2023/02/23 10:19:24;;;;;;;41.88;24.80;;;;;;;13.00;90.75;98730.38;5102513;28;20044;-95
2023/02/23 10:21:55;;;;;;;39.75;24.83;;;;;;;12.84;92.61;98741.63;5102228;28;20048;-95
2023/02/23 10:24:25;;;;;;;43.92;25.63;;;;;;;12.84;92.43;98730.09;5100544;28;20050;-94
2023/02/23 10:26:55;;;;;;;45.05;25.70;;;;;;;12.82;93.14;98735.47;5100447;28;20044;-95
2023/02/23 10:29:27;;;;;;;45.50;27.15;;;;;;;12.98;91.80;98742.91;5096456;28;20047;-94
2023/02/23 10:31:57;;;;;;;45.90;26.13;;;;;;;13.03;88.07;98724.91;5092986;28;20100;-93
2023/02/23 10:34:25;;;;;;;44.95;25.85;;;;;;;13.28;88.51;98717.75;5099829;28;20036;-93
2023/02/23 10:36:57;;;;;;;43.40;25.30;;;;;;;13.49;89.28;98728.53;5100085;28;20094;-94
2023/02/23 10:39:24;;;;;;;40.70;24.25;;;;;;;13.54;87.98;98722.06;5096127;28;20478;-94
2023/02/23 10:41:52;;;;;;;43.38;26.13;;;;;;;13.64;88.70;98725.25;5096878;28;20039;-94
2023/02/23 10:44:20;;;;;;;43.83;25.90;;;;;;;13.22;88.19;98720.59;5099453;28;20048;-94
2023/02/23 10:46:53;;;;;;;44.33;26.10;;;;;;;12.85;90.54;98706.00;5098396;28;20453;-93
2023/02/23 10:49:22;;;;;;;46.80;26.13;;;;;;;13.08;91.53;98728.28;5095343;28;20044;-95
2023/02/23 10:51:50;;;;;;;;;;;;;;;13.27;89.37;98726.66;5099564;28;20040;-95
2023/02/23 10:54:36;;;;;;;38.77;23.60;;;;;;;13.48;87.85;98729.44;5095491;28;19924;-95
2023/02/23 10:57:04;;;;;;;44.88;24.63;;;;;;;13.52;84.44;98699.00;5098330;28;20044;-95
2023/02/23 10:59:30;;;;;;;43.30;25.15;;;;;;;13.54;86.44;98699.81;5100219;28;20040;-93
2023/02/23 11:01:58;;;;;;;44.97;24.98;;;;;;;13.38;86.75;98702.25;5098595;28;20173;-93
2023/02/23 11:04:26;;;;;;;43.90;25.80;;;;;;;13.52;87.35;98713.22;5098636;28;20486;-94
2023/02/23 11:07:06;;;;;;;43.90;25.05;;;;;;;13.77;86.21;98717.59;5098873;28;20497;-94
2023/02/23 11:09:33;;;;;;;48.17;27.23;;;;;;;13.81;86.49;98703.16;5098195;28;20481;-95
2023/02/23 11:12:01;;;;;;;42.65;27.13;;;;;;;13.97;85.08;98696.25;5099408;28;20036;-92
2023/02/23 11:14:29;;;;;;;49.53;27.37;;;;;;;14.27;85.25;98708.34;5098668;28;20111;-94
2023/02/23 11:16:56;;;;;;;44.80;27.20;;;;;;;14.45;84.76;98704.91;5096550;28;20405;-95
2023/02/23 11:19:31;;;;;;;46.33;26.90;;;;;;;14.44;82.11;98697.78;5099010;28;20413;-94
2023/02/23 11:21:58;;;;;;;45.40;26.70;;;;;;;14.68;81.39;98705.72;5097183;28;20036;-94
2023/02/23 11:24:29;;;;;;;47.75;26.88;;;;;;;14.71;80.57;98676.16;5096960;28;20055;-95
2023/02/23 11:26:59;;;;;;;46.67;26.15;;;;;;;14.98;78.05;98695.41;5098065;28;20047;-94
2023/02/23 11:29:34;;;;;;;46.83;25.92;;;;;;;14.89;79.58;98675.28;5095331;28;20040;-94
2023/02/23 11:32:07;;;;;;;41.17;24.67;;;;;;;14.96;77.59;98671.41;5095223;28;20036;-94
2023/02/23 11:34:39;;;;;;;44.50;26.40;;;;;;;14.86;79.57;98677.25;5093330;28;20040;-95
2023/02/23 11:37:19;;;;;;;37.13;22.48;;;;;;;14.66;77.39;98665.66;5096438;28;20126;-95
2023/02/23 11:39:51;;;;;;;34.83;21.55;;;;;;;14.62;77.09;98668.53;5095556;28;20048;-94
2023/02/23 11:42:20;;;;;;;39.15;20.65;;;;;;;14.40;77.01;98680.16;5097453;28;20040;-94
2023/02/23 11:44:51;;;;;;;35.30;19.35;;;;;;;14.16;77.40;98666.94;5097292;28;20040;-94
2023/02/23 11:47:20;;;;;;;34.15;19.45;;;;;;;14.03;78.13;98664.81;5097294;28;20033;-94
2023/02/23 11:49:48;;;;;;;34.75;19.40;;;;;;;13.94;78.34;98666.09;5098917;28;20063;-94
2023/02/23 11:52:16;;;;;;;32.50;17.85;;;;;;;14.03;76.32;98687.09;5099349;28;20047;-94
2023/02/23 11:54:50;;;;;;;30.00;17.42;;;;;;;14.08;76.01;98657.50;5098182;28;20048;-93
2023/02/23 11:57:21;;;;;;;27.08;15.32;;;;;;;14.26;77.27;98662.03;5095054;28;20047;-94
2023/02/23 11:59:47;;;;;;;23.60;15.23;;;;;;;14.52;76.14;98684.09;5096593;28;20040;-94
2023/02/23 12:02:22;;;;;;;27.20;15.68;;;;;;;14.56;76.08;98681.25;5096545;28;20033;-94
2023/02/23 12:05:00;;;;;;;23.48;14.75;;;;;;;14.36;74.81;98651.81;5097563;28;20050;-93
2023/02/23 12:07:40;;;;;;;24.13;14.77;;;;;;;14.68;76.57;98669.13;5099454;28;20069;-93
2023/02/23 12:10:14;;;;;;;25.60;14.90;;;;;;;14.76;75.96;98652.72;5094425;28;20121;-93
2023/02/23 12:12:51;;;;;;;25.10;14.77;;;;;;;15.13;75.15;98665.25;5093806;28;20044;-94
2023/02/23 12:15:25;;;;;;;26.02;15.07;;;;;;;14.84;73.61;98661.25;5095479;28;20111;-94
2023/02/23 12:17:56;;;;;;;31.20;16.60;;;;;;;14.56;73.74;98665.19;5095400;28;20040;-94
2023/02/23 12:20:28;;;;;;;26.35;15.75;;;;;;;14.23;76.81;98635.44;5095273;28;20047;-93
2023/02/23 12:22:58;;;;;;;25.95;15.68;;;;;;;14.11;75.45;98631.47;5096212;28;20040;-95
2023/02/23 12:25:28;;;;;;;25.15;15.48;;;;;;;13.76;77.77;98631.19;5098996;28;20048;-94
2023/02/23 12:28:04;;;;;;;26.88;15.25;;;;;;;13.93;77.47;98627.81;5097494;28;20048;-94
2023/02/23 12:30:39;;;;;;;25.70;15.90;;;;;;;14.11;75.87;98642.16;5097682;28;20097;-94
2023/02/23 12:33:14;;;;;;;25.70;15.90;;;;;;;13.95;76.04;98633.94;5098885;28;20063;-93
2023/02/23 12:35:48;;;;;;;24.65;14.68;;;;;;;14.01;76.98;98629.25;5097896;28;20059;-93
2023/02/23 12:38:26;;;;;;;24.40;14.30;;;;;;;14.28;78.59;98643.25;5096420;28;20565;-95
2023/02/23 12:41:00;;;;;;;24.95;15.35;;;;;;;14.29;76.56;98640.50;5101064;28;20122;-93
2023/02/23 12:43:36;;;;;;;27.10;15.90;;;;;;;14.17;77.79;98659.75;5102044;28;20062;-95
2023/02/23 12:46:12;;;;;;;29.63;16.70;;;;;;;13.93;77.55;98625.13;5103040;28;20501;-95
2023/02/23 12:48:49;;;;;;;25.15;14.90;;;;;;;14.05;77.48;98628.19;5104360;28;20139;-93
2023/02/23 12:51:23;;;;;;;26.63;16.23;;;;;;;14.10;77.55;98620.88;5104353;28;20048;-94
2023/02/23 12:53:51;;;;;;;30.50;17.48;;;;;;;14.23;77.65;98629.22;5100749;28;20055;-94
2023/02/23 12:56:44;;;;;;;27.27;16.17;;;;;;;14.12;77.17;98622.53;5100474;28;20040;-94
2023/02/23 12:59:41;;;;;;;29.52;16.42;;;;;;;14.28;76.61;98645.91;5100441;28;20044;-95
2023/02/23 13:02:17;;;;;;;23.63;14.20;;;;;;;14.14;75.26;98615.31;5102182;28;20516;-94